createdAt,value
2023-03-28T00:03:55.362Z,61.87
2023-03-28T00:09:16.898Z,61.77
2023-03-28T00:14:38.834Z,62.09
2023-03-28T00:20:02.799Z,61.61
2023-03-28T00:25:24.077Z,62.06
2023-03-28T00:30:44.826Z,61.62
2023-03-28T00:36:06.774Z,61.59
2023-03-28T00:41:32.558Z,62.02
2023-03-28T00:46:53.832Z,61.89
2023-03-28T00:52:17.995Z,62.15
2023-03-28T00:57:40.221Z,61.88
2023-03-28T01:03:04.148Z,62.06
2023-03-28T01:08:29.342Z,62.45
2023-03-28T01:13:53.136Z,62.40
2023-03-28T01:19:59.194Z,62.23
2023-03-28T01:25:41.920Z,62.36
2023-03-28T01:31:18.043Z,62.14
2023-03-28T01:37:05.775Z,62.15
2023-03-28T01:42:57.172Z,62.35
2023-03-28T01:48:32.866Z,62.28
2023-03-28T01:54:12.824Z,62.25
2023-03-28T01:59:41.354Z,62.11
2023-03-28T02:05:19.505Z,62.53
2023-03-28T02:10:44.364Z,62.20
2023-03-28T02:16:23.479Z,61.93
2023-03-28T02:22:00.869Z,61.81
2023-03-28T02:27:39.490Z,61.65
2023-03-28T02:33:50.809Z,62.05
2023-03-28T02:39:28.144Z,61.63
2023-03-28T02:45:10.493Z,62.05
2023-03-28T02:50:48.898Z,61.54
2023-03-28T02:56:21.970Z,61.46
2023-03-28T03:02:09.164Z,61.95
2023-03-28T03:07:32.202Z,61.69
2023-03-28T03:12:54.302Z,62.06
2023-03-28T03:18:16.923Z,62.15
2023-03-28T03:23:38.149Z,62.23
2023-03-28T03:29:00.896Z,61.87
2023-03-28T03:34:24.351Z,62.16
2023-03-28T03:39:48.719Z,61.34
2023-03-28T03:45:13.838Z,61.07
2023-03-28T03:50:36.682Z,61.46
2023-03-28T03:56:04.652Z,61.52
2023-03-28T04:01:44.246Z,61.90
2023-03-28T04:07:20.940Z,61.91
2023-03-28T04:12:45.333Z,61.48
2023-03-28T04:18:09.066Z,61.67
2023-03-28T04:23:43.503Z,61.74
2023-03-28T04:29:43.855Z,62.31
2023-03-28T04:35:36.265Z,62.50
2023-03-28T04:40:58.228Z,62.43
2023-03-28T04:46:39.156Z,62.63
2023-03-28T04:52:06.436Z,62.38
2023-03-28T04:57:28.220Z,63.04
2023-03-28T05:02:56.319Z,63.15
2023-03-28T05:08:23.073Z,63.81
2023-03-28T05:13:44.648Z,64.05
2023-03-28T05:19:18.180Z,64.31
2023-03-28T05:24:50.242Z,64.45
2023-03-28T05:30:14.354Z,64.53
2023-03-28T05:35:37.450Z,64.64
2023-03-28T05:41:00.167Z,65.07
2023-03-28T05:46:20.983Z,64.52
2023-03-28T05:51:42.124Z,64.70
2023-03-28T05:57:04.043Z,64.57
2023-03-28T06:02:25.189Z,65.02
2023-03-28T06:07:51.657Z,64.99
2023-03-28T06:13:13.266Z,64.98
2023-03-28T06:18:36.059Z,65.33
2023-03-28T06:23:57.513Z,65.52
2023-03-28T06:29:23.705Z,65.77
2023-03-28T06:34:53.648Z,65.68
2023-03-28T06:40:17.120Z,65.55
2023-03-28T06:45:38.249Z,66.23
2023-03-28T06:51:04.364Z,66.15
2023-03-28T06:56:25.308Z,65.84
2023-03-28T07:01:46.012Z,65.29
2023-03-28T07:07:09.735Z,65.22
2023-03-28T07:12:31.486Z,64.95
2023-03-28T07:17:53.333Z,65.04
2023-03-28T07:23:14.542Z,64.78
2023-03-28T07:28:36.054Z,64.60
2023-03-28T07:33:58.228Z,64.32
2023-03-28T07:39:19.357Z,64.25
2023-03-28T07:44:42.476Z,64.09
2023-03-28T07:50:04.294Z,64.67
2023-03-28T07:55:26.445Z,64.60
2023-03-28T08:00:47.621Z,64.78
2023-03-28T08:06:38.469Z,64.80
2023-03-28T08:11:59.376Z,64.09
2023-03-28T08:17:20.800Z,64.21
2023-03-28T08:22:42.072Z,63.62
2023-03-28T08:28:26.271Z,63.06
2023-03-28T08:33:48.700Z,62.96
2023-03-28T08:39:10.535Z,62.32
2023-03-28T08:44:50.007Z,61.88
2023-03-28T08:50:23.797Z,61.52
2023-03-28T08:55:48.099Z,60.85
2023-03-28T09:01:10.314Z,60.84
2023-03-28T09:06:39.960Z,61.93
2023-03-28T09:12:29.234Z,59.69
2023-03-28T09:18:02.347Z,59.38
2023-03-28T09:23:51.516Z,58.89
2023-03-28T09:29:25.260Z,57.76
2023-03-28T09:34:49.666Z,57.77
2023-03-28T09:40:31.052Z,57.68
2023-03-28T09:46:18.779Z,57.18
2023-03-28T09:51:54.120Z,57.41
2023-03-28T09:57:15.111Z,57.58
2023-03-28T10:02:53.249Z,57.04
2023-03-28T10:08:29.032Z,57.49
2023-03-28T10:14:33.396Z,56.74
2023-03-28T10:20:08.079Z,56.10
2023-03-28T10:25:39.878Z,56.07
2023-03-28T10:31:02.189Z,56.01
2023-03-28T10:36:40.139Z,54.94
2023-03-28T10:42:02.547Z,54.92
2023-03-28T10:48:00.986Z,55.00
2023-03-28T10:53:45.757Z,54.10
2023-03-28T10:59:28.480Z,52.94
2023-03-28T11:05:33.458Z,53.18
2023-03-28T11:11:19.677Z,52.75
2023-03-28T11:16:55.071Z,53.09
2023-03-28T11:22:58.890Z,53.49
2023-03-28T11:28:59.647Z,52.33
2023-03-28T11:34:40.794Z,53.50
2023-03-28T11:40:18.504Z,52.50
2023-03-28T11:45:55.586Z,52.17
2023-03-28T11:51:45.737Z,52.09
2023-03-28T11:57:18.586Z,52.66
2023-03-28T12:02:52.865Z,51.89
2023-03-28T12:08:56.945Z,51.61
2023-03-28T12:14:35.029Z,51.92
2023-03-28T12:20:08.142Z,52.00
2023-03-28T12:25:35.855Z,51.67
2023-03-28T12:31:10.619Z,50.88
2023-03-28T12:36:51.129Z,51.01
2023-03-28T12:42:17.387Z,51.38
2023-03-28T12:47:50.087Z,50.19
2023-03-28T12:53:13.131Z,50.36
2023-03-28T12:58:36.758Z,51.13
2023-03-28T13:04:29.050Z,51.01
2023-03-28T13:10:24.259Z,50.23
2023-03-28T13:16:14.131Z,49.93
2023-03-28T13:21:54.775Z,50.12
2023-03-28T13:27:32.828Z,49.80
2023-03-28T13:32:57.285Z,49.47
2023-03-28T13:38:26.969Z,49.06
2023-03-28T13:44:00.461Z,48.91
2023-03-28T13:49:32.032Z,48.89
2023-03-28T13:55:00.741Z,49.04
2023-03-28T14:00:26.163Z,48.80
2023-03-28T14:05:46.755Z,49.17
2023-03-28T14:11:07.725Z,49.22
2023-03-28T14:16:28.723Z,49.69
2023-03-28T14:21:50.497Z,49.34
2023-03-28T14:27:17.655Z,48.70
2023-03-28T14:32:54.589Z,48.72
2023-03-28T14:38:28.960Z,48.76
2023-03-28T14:43:58.263Z,48.68
2023-03-28T14:49:23.703Z,48.04
2023-03-28T14:54:47.082Z,48.36
2023-03-28T15:00:14.230Z,48.20
2023-03-28T15:05:36.534Z,48.17
2023-03-28T15:11:03.331Z,48.18
2023-03-28T15:16:26.518Z,48.40
2023-03-28T15:21:55.134Z,48.24
2023-03-28T15:27:29.138Z,47.84
2023-03-28T15:32:50.976Z,48.19
2023-03-28T15:38:20.568Z,48.17
2023-03-28T15:43:59.318Z,48.29
2023-03-28T15:49:20.320Z,48.77
2023-03-28T15:54:44.644Z,48.59
2023-03-28T16:00:07.010Z,48.98
2023-03-28T16:05:35.551Z,48.73
2023-03-28T16:10:58.649Z,49.05
2023-03-28T16:16:46.493Z,49.21
2023-03-28T16:22:14.656Z,49.31
2023-03-28T16:27:37.798Z,49.32
2023-03-28T16:32:58.835Z,49.35
2023-03-28T16:38:19.611Z,49.36
2023-03-28T16:43:40.745Z,49.21
2023-03-28T16:49:01.754Z,49.43
2023-03-28T16:54:24.050Z,49.29
2023-03-28T16:59:44.943Z,49.58
2023-03-28T17:05:06.333Z,49.69
2023-03-28T17:10:29.397Z,49.45
2023-03-28T17:15:51.877Z,50.08
2023-03-28T17:21:16.020Z,50.51
2023-03-28T17:26:37.549Z,50.80
2023-03-28T17:31:58.640Z,50.66
2023-03-28T17:37:22.333Z,50.59
2023-03-28T17:42:43.187Z,51.22
2023-03-28T17:48:03.956Z,50.76
2023-03-28T17:53:25.164Z,50.96
2023-03-28T17:58:46.636Z,50.60
2023-03-28T18:04:07.994Z,50.54
2023-03-28T18:09:31.839Z,51.08
2023-03-28T18:14:52.846Z,51.45
2023-03-28T18:20:14.069Z,51.59
2023-03-28T18:25:39.140Z,51.28
2023-03-28T18:31:11.978Z,52.13
2023-03-28T18:36:33.850Z,51.69
2023-03-28T18:41:55.074Z,51.87
2023-03-28T18:47:16.773Z,52.13
2023-03-28T18:52:37.972Z,51.87
2023-03-28T18:57:59.018Z,51.89
2023-03-28T19:03:19.971Z,51.71
2023-03-28T19:08:41.462Z,51.99
2023-03-28T19:14:02.417Z,51.87
2023-03-28T19:19:24.578Z,51.80
2023-03-28T19:24:47.324Z,52.19
2023-03-28T19:30:09.131Z,52.59
2023-03-28T19:35:29.855Z,52.18
2023-03-28T19:40:57.861Z,52.27
2023-03-28T19:46:29.652Z,51.84
2023-03-28T19:51:53.538Z,52.29
2023-03-28T19:57:14.533Z,52.27
2023-03-28T20:02:37.432Z,52.35
2023-03-28T20:07:58.102Z,52.58
2023-03-28T20:13:19.221Z,52.56
2023-03-28T20:18:41.056Z,52.55
2023-03-28T20:24:01.994Z,52.53
2023-03-28T20:29:24.737Z,53.21
2023-03-28T20:34:46.074Z,53.06
2023-03-28T20:40:10.345Z,53.56
2023-03-28T20:45:31.315Z,53.13
2023-03-28T20:50:54.041Z,53.33
2023-03-28T20:56:15.902Z,53.54
2023-03-28T21:01:39.509Z,53.18
2023-03-28T21:07:01.741Z,53.96
2023-03-28T21:12:22.907Z,53.37
2023-03-28T21:17:43.911Z,53.19
2023-03-28T21:23:04.698Z,53.44
2023-03-28T21:28:26.225Z,54.25
2023-03-28T21:33:49.098Z,53.52
2023-03-28T21:39:10.620Z,53.58
2023-03-28T21:44:31.476Z,54.24
2023-03-28T21:49:52.487Z,53.86
2023-03-28T21:55:13.259Z,53.90
2023-03-28T22:00:34.160Z,54.32
2023-03-28T22:05:55.635Z,54.14
2023-03-28T22:11:19.242Z,53.63
2023-03-28T22:16:40.205Z,53.86
2023-03-28T22:22:01.950Z,53.97
2023-03-28T22:27:22.846Z,53.60
2023-03-28T22:32:43.684Z,54.17
2023-03-28T22:38:05.065Z,53.86
2023-03-28T22:43:25.699Z,53.53
2023-03-28T22:48:47.300Z,54.07
2023-03-28T22:54:07.885Z,54.10
2023-03-28T22:59:28.575Z,53.75
2023-03-28T23:04:50.811Z,54.53
2023-03-28T23:10:17.700Z,53.94
2023-03-28T23:15:38.675Z,54.29
2023-03-28T23:20:59.746Z,53.73
2023-03-28T23:26:21.221Z,54.27
2023-03-28T23:31:41.985Z,54.27
2023-03-28T23:37:03.421Z,53.94
2023-03-28T23:42:24.821Z,54.37
2023-03-28T23:47:46.190Z,54.09
2023-03-28T23:53:07.176Z,53.97
2023-03-28T23:58:27.791Z,53.82
